Terminal Aerodrome Forecast
Issued by NWS

Home | Current Version | Previous Version | Text Only | Print | Product List | Glossary Off
Versions: 1 2 3 4 5 6 7 8 9 10 11 12 13 14 15 16 17 18 19 20 21 22

000
FTUS41 KCLE 271200 AAA
TAFFDY
TAF AMD
KFDY 271238Z 2713/2812 22004KT 4SM BR SCT003 OVC020
     FM271500 25006KT P6SM VCSH SCT020 BKN035
     FM271900 28010KT P6SM VCTS BKN035CB OVC100
      TEMPO 2723/2803 2SM TSRA BR OVC015CB
     FM280400 28009KT 6SM BR OVC035=

USA.gov is the U.S. government's official web portal to all federal, state and local government web resources and services.